Latest Coastal Weather Observations for Frankston

IDV60701

Issued at 1:45 am EDT Sunday 26 October 2014 (issued every 10 minutes, with the page automatically refreshed every 10 minutes)

About coastal observations | Map of coastal stations | Coastal observations for VIC | Marine services | Other Formats
Station Details ID: 086371 Name: FRANKSTON AWS Lat: -38.15 Lon: 145.12 Height: 6.0 m
Data from the previous 72 hours. | See also: Recent months at Frankston
Date/Time
EDT
Temp

°C
Wind Pressure Rain
since 9am
mm
Weather Cloud Vis
km
Sea
Height
m
Swell
Dir
 
Speed
knots
Gust
knots
hPa Trend Height
m
Period
s
Dir
26/01:30am 13.5 WSW 1 4 - - - - - - - - - -
26/01:00am 13.5 SE 2 4 - - - - - - - - - -
26/12:30am 13.6 S 2 5 - - - - - - - - - -
26/12:00am 13.6 SSE 2 5 - - - - - - - - - -
 
Date/Time
EDT
Temp

°C
Wind Pressure Rain
since 9am
mm
Weather Cloud Vis
km
Sea
Height
m
Swell
Dir
 
Speed
knots
Gust
knots
hPa Trend Height
m
Period
s
Dir
25/11:30pm 13.7 S 4 7 - - - - - - - - - -
25/11:00pm 13.7 S 5 7 - - - - - - - - - -
25/10:30pm 13.7 S 4 6 - - - - - - - - - -
25/10:00pm 13.4 S 3 6 - - - - - - - - - -
25/09:30pm 13.2 S 3 5 - - - - - - - - - -
25/09:00pm 13.4 S 4 7 - - - - - - - - - -
25/08:30pm 13.7 S 5 7 - - - - - - - - - -
25/08:00pm 14.1 S 5 9 - - - - - - - - - -
25/07:30pm 14.5 S 6 11 - - - - - - - - - -
25/07:00pm 14.8 S 6 11 - - - - - - - - - -
25/06:30pm 15.4 S 5 11 - - - - - - - - - -
25/06:00pm 15.6 S 4 7 - - - - - - - - - -
25/05:30pm 16.0 S 6 8 - - - - - - - - - -
25/05:00pm 16.0 S 6 11 - - - - - - - - - -
25/04:30pm 16.3 S 7 10 - - - - - - - - - -
25/04:00pm 16.3 S 7 14 - - - - - - - - - -
25/03:30pm 14.9 WSW 13 15 - - - - - - - - - -
25/03:00pm 14.7 WSW 11 13 - - - - - - - - - -
25/02:30pm 14.7 WSW 10 12 - - - - - - - - - -
25/02:00pm 14.5 W 8 9 - - - - - - - - - -
25/01:30pm 14.4 W 7 7 - - - - - - - - - -
25/01:00pm 14.3 W 6 8 - - - - - - - - - -
25/12:30pm 14.2 W 5 6 - - - - - - - - - -
25/12:00pm 14.1 W 6 6 - - - - - - - - - -
25/11:30am 13.9 W 6 8 - - - - - - - - - -
25/11:00am 14.0 WSW 6 7 - - - - - - - - - -
25/10:30am 14.6 WSW 4 8 - - - - - - - - - -
25/10:00am 14.4 SW 5 7 - - - - - - - - - -
25/09:30am 14.2 SW 4 5 - - - - - - - - - -
25/09:00am 14.3 SW 4 5 - - - - - - - - - -
25/08:30am 14.3 SSW 3 4 - - - - - - - - - -
25/08:00am 14.2 S 1 3 - - - - - - - - - -
25/07:30am 14.0 SE 2 4 - - - - - - - - - -
25/07:00am 13.8 SSE 2 4 - - - - - - - - - -
25/06:30am 13.8 S 2 4 - - - - - - - - - -
25/06:00am 13.8 SSW 4 6 - - - - - - - - - -
25/05:30am 13.9 SSW 5 7 - - - - - - - - - -
25/05:00am 14.0 SW 6 8 - - - - - - - - - -
25/04:30am 13.9 SW 10 11 - - - - - - - - - -
25/04:00am 14.1 WSW 7 11 - - - - - - - - - -
25/03:30am 13.5 SW 6 8 - - - - - - - - - -
25/03:00am 13.6 SW 6 9 - - - - - - - - - -
25/02:30am 13.8 SW 8 13 - - - - - - - - - -
25/02:00am 14.0 SSW 6 8 - - - - - - - - - -
25/01:30am 14.3 SW 7 10 - - - - - - - - - -
25/01:00am 14.8 WSW 8 10 - - - - - - - - - -
25/12:30am 14.9 SW 8 12 - - - - - - - - - -
25/12:00am 15.0 SW 2 5 - - - - - - - - - -
 
Date/Time
EDT
Temp

°C
Wind Pressure Rain
since 9am
mm
Weather Cloud Vis
km
Sea
Height
m
Swell
Dir
 
Speed
knots
Gust
knots
hPa Trend Height
m
Period
s
Dir
24/11:30pm 15.1 SW 7 9 - - - - - - - - - -
24/11:00pm 15.0 WSW 11 14 - - - - - - - - - -
24/10:30pm 15.2 WSW 11 14 - - - - - - - - - -
24/10:00pm 15.2 CALM 0 0 - - - - - - - - - -
24/09:30pm 15.4 S 2 4 - - - - - - - - - -
24/09:00pm 15.8 SSW 1 4 - - - - - - - - - -
24/08:30pm 16.2 SSW 3 6 - - - - - - - - - -
24/08:00pm 18.2 SSW 6 10 - - - - - - - - - -
24/07:30pm 17.7 WSW 8 12 - - - - - - - - - -
24/07:00pm 18.3 WSW 13 15 - - - - - - - - - -
24/06:30pm 19.3 WSW 13 15 - - - - - - - - - -
24/06:00pm 20.2 WSW 10 11 - - - - - - - - - -
24/05:30pm 22.3 WSW 12 13 - - - - - - - - - -
24/05:00pm 23.1 WSW 11 12 - - - - - - - - - -
24/04:30pm 22.1 W 3 4 - - - - - - - - - -
24/04:00pm 22.1 W 1 2 - - - - - - - - - -
24/03:30pm 21.7 W 1 4 - - - - - - - - - -
24/03:00pm 21.7 WSW 3 5 - - - - - - - - - -
24/02:30pm 21.4 W 3 4 - - - - - - - - - -
24/02:00pm 21.2 WSW 3 5 - - - - - - - - - -
24/01:30pm 19.9 WSW 3 4 - - - - - - - - - -
24/01:00pm 17.3 WSW 4 4 - - - - - - - - - -
24/12:30pm 16.0 W 7 9 - - - - - - - - - -
24/12:00pm 15.7 W 5 6 - - - - - - - - - -
24/11:30am 15.4 W 6 7 - - - - - - - - - -
24/11:00am 15.3 WSW 4 5 - - - - - - - - - -
24/10:30am 15.0 W 3 3 - - - - - - - - - -
24/10:00am 14.4 NW 2 3 - - - - - - - - - -
24/09:30am 14.3 N 1 2 - - - - - - - - - -
24/09:00am 14.2 WNW 2 3 - - - - - - - - - -
24/08:30am 14.2 N 1 2 - - - - - - - - - -
24/08:00am 14.3 N 3 4 - - - - - - - - - -
24/07:30am 14.5 CALM 0 3 - - - - - - - - - -
24/07:00am 14.0 E 1 3 - - - - - - - - - -
24/06:30am 13.9 E 2 3 - - - - - - - - - -
24/06:00am 14.0 ESE 2 2 - - - - - - - - - -
24/05:30am 14.5 CALM 0 1 - - - - - - - - - -
24/05:00am 14.8 ENE 2 3 - - - - - - - - - -
24/04:30am 15.1 NE 2 4 - - - - - - - - - -
24/04:00am 15.8 E 3 6 - - - - - - - - - -
24/03:30am 15.9 E 5 9 - - - - - - - - - -
24/03:00am 15.9 E 6 9 - - - - - - - - - -
24/02:30am 15.9 E 6 11 - - - - - - - - - -
24/02:00am 16.0 E 6 11 - - - - - - - - - -
24/01:30am 16.1 E 8 13 - - - - - - - - - -
24/01:00am 16.1 E 9 17 - - - - - - - - - -
24/12:30am 16.1 ESE 8 16 - - - - - - - - - -
24/12:00am 16.2 E 12 20 - - - - - - - - - -
 
Date/Time
EDT
Temp

°C
Wind Pressure Rain
since 9am
mm
Weather Cloud Vis
km
Sea
Height
m
Swell
Dir
 
Speed
knots
Gust
knots
hPa Trend Height
m
Period
s
Dir
23/11:30pm 16.3 E 11 19 - - - - - - - - - -
23/11:00pm 16.3 ESE 12 23 - - - - - - - - - -
23/10:30pm - ESE 13 23 - - - - - - - - - -
23/10:00pm 16.3 ESE 13 21 - - - - - - - - - -
23/09:30pm 16.3 ESE 13 22 - - - - - - - - - -
23/09:20pm 16.3 ESE 15 25 - - - - - - - - - -
23/09:00pm 16.3 ESE 13 27 - - - - - - - - - -
23/08:30pm 16.2 ESE 13 25 - - - - - - - - - -
23/08:00pm 16.4 ESE 12 21 - - - - - - - - - -
23/07:30pm 16.7 E 14 27 - - - - - - - - - -
23/07:00pm 17.4 ESE 12 22 - - - - - - - - - -
23/06:30pm 17.6 ESE 12 24 - - - - - - - - - -
23/06:00pm 18.1 ESE 12 25 - - - - - - - - - -
23/05:30pm 18.8 E 12 23 - - - - - - - - - -
23/05:00pm 18.9 E 11 21 - - - - - - - - - -
23/04:30pm 18.9 E 11 20 - - - - - - - - - -
23/04:00pm 18.9 ESE 12 22 - - - - - - - - - -
23/03:30pm 19.3 E 8 16 - - - - - - - - - -
23/03:00pm 19.5 ESE 6 13 - - - - - - - - - -
23/02:30pm 18.4 SE 5 11 - - - - - - - - - -
23/02:00pm 18.0 SSE 6 10 - - - - - - - - - -
23/01:30pm 17.5 ESE 5 11 - - - - - - - - - -
23/01:00pm 16.6 ESE 4 8 - - - - - - - - - -
23/12:30pm 16.0 SE 4 6 - - - - - - - - - -
23/12:00pm 15.8 SSE 4 6 - - - - - - - - - -
23/11:30am 15.6 SE 2 6 - - - - - - - - - -
23/11:00am 15.3 SSE 3 5 - - - - - - - - - -
23/10:30am 15.2 S 1 3 - - - - - - - - - -
23/10:00am 14.8 S 2 4 - - - - - - - - - -
23/09:30am 14.8 SSE 2 4 - - - - - - - - - -
23/09:00am 14.7 SSE 3 4 - - - - - - - - - -
23/08:30am 14.6 SSE 4 5 - - - - - - - - - -
23/08:00am 14.5 S 3 5 - - - - - - - - - -
23/07:30am 14.6 SSE 3 6 - - - - - - - - - -
23/07:00am 14.6 S 2 5 - - - - - - - - - -
23/06:30am 14.6 S 2 3 - - - - - - - - - -
23/06:00am 14.7 S 2 4 - - - - - - - - - -
23/05:30am 14.8 S 3 4 - - - - - - - - - -
23/05:00am 14.6 SSW 4 6 - - - - - - - - - -
23/04:30am 14.6 SW 4 7 - - - - - - - - - -
23/04:00am 14.6 SW 4 5 - - - - - - - - - -
23/03:30am 14.7 WSW 4 5 - - - - - - - - - -
23/03:00am 14.7 WSW 6 8 - - - - - - - - - -
23/02:30am 14.6 SW 7 10 - - - - - - - - - -
23/02:00am 14.8 SW 7 10 - - - - - - - - - -

Other Formats:

Comma delimited format used in spreadsheet applications
http://www.bom.gov.au/fwo/IDV60701/IDV60701.94871.axf

JavaScript Object Notation format (JSON) in row-major order
http://www.bom.gov.au/fwo/IDV60701/IDV60701.94871.json